Terminal Aerodrome Forecast
Issued by NWS Corpus Christi, TX

Home | Current Version | Previous Version | Text Only | Print | Product List | Glossary On
Versions: 1 2 3 4 5 6 7 8 9 10 11 12 13 14 15 16 17 18 19 20
000
FTUS44 KCRP 180705 AAA
TAFVCT
TAF AMD
KVCT 180705Z 1807/1906 18008KT P6SM SCT012
      TEMPO 1807/1810 BKN012
     FM181000 18006KT P6SM SCT010
      TEMPO 1810/1814 4SM BR BKN010
     FM181500 24011KT P6SM FEW015 SCT035
     FM182000 35014KT P6SM SCT040
     FM182300 36017G24KT P6SM SKC=

USA.gov is the U.S. government's official web portal to all federal, state and local government web resources and services.